sensor_id;sensor_type;location;lat;lon;timestamp;temperature;humidity
20487;DHT22;10402;49.012;8.370;2023-08-07T00:01:53;15.50;89.90
20487;DHT22;10402;49.012;8.370;2023-08-07T00:04:18;15.50;89.60
20487;DHT22;10402;49.012;8.370;2023-08-07T00:06:44;15.50;89.40
20487;DHT22;10402;49.012;8.370;2023-08-07T00:09:09;15.50;89.40
20487;DHT22;10402;49.012;8.370;2023-08-07T00:11:35;15.60;89.40
20487;DHT22;10402;49.012;8.370;2023-08-07T00:14:00;15.50;89.20
20487;DHT22;10402;49.012;8.370;2023-08-07T00:16:26;15.50;89.30
20487;DHT22;10402;49.012;8.370;2023-08-07T00:18:51;15.50;89.10
20487;DHT22;10402;49.012;8.370;2023-08-07T00:21:21;15.50;89.10
20487;DHT22;10402;49.012;8.370;2023-08-07T00:23:47;15.60;89.00
20487;DHT22;10402;49.012;8.370;2023-08-07T00:26:12;15.50;88.50
20487;DHT22;10402;49.012;8.370;2023-08-07T00:28:38;15.50;88.50
20487;DHT22;10402;49.012;8.370;2023-08-07T00:31:03;15.50;88.30
20487;DHT22;10402;49.012;8.370;2023-08-07T00:33:29;15.50;88.10
20487;DHT22;10402;49.012;8.370;2023-08-07T00:35:54;15.50;88.20
20487;DHT22;10402;49.012;8.370;2023-08-07T00:38:20;15.50;88.00
20487;DHT22;10402;49.012;8.370;2023-08-07T00:40:45;15.50;88.00
20487;DHT22;10402;49.012;8.370;2023-08-07T00:43:11;15.50;88.00
20487;DHT22;10402;49.012;8.370;2023-08-07T00:45:45;15.50;88.00
20487;DHT22;10402;49.012;8.370;2023-08-07T00:48:12;15.50;88.00
20487;DHT22;10402;49.012;8.370;2023-08-07T00:50:39;15.50;87.60
20487;DHT22;10402;49.012;8.370;2023-08-07T00:53:05;15.40;87.50
20487;DHT22;10402;49.012;8.370;2023-08-07T00:55:32;15.40;87.60
20487;DHT22;10402;49.012;8.370;2023-08-07T00:58:01;15.40;87.50
20487;DHT22;10402;49.012;8.370;2023-08-07T01:00:29;15.40;87.50
20487;DHT22;10402;49.012;8.370;2023-08-07T01:02:59;15.40;87.20
20487;DHT22;10402;49.012;8.370;2023-08-07T01:05:25;15.30;87.10
20487;DHT22;10402;49.012;8.370;2023-08-07T01:07:53;15.30;87.00
20487;DHT22;10402;49.012;8.370;2023-08-07T01:10:28;15.30;87.10
20487;DHT22;10402;49.012;8.370;2023-08-07T01:13:08;15.40;87.20
20487;DHT22;10402;49.012;8.370;2023-08-07T01:15:36;15.40;86.90
20487;DHT22;10402;49.012;8.370;2023-08-07T01:18:03;15.40;86.80
20487;DHT22;10402;49.012;8.370;2023-08-07T01:20:30;15.30;86.70
20487;DHT22;10402;49.012;8.370;2023-08-07T01:22:56;15.30;86.50
20487;DHT22;10402;49.012;8.370;2023-08-07T01:25:21;15.30;86.50
20487;DHT22;10402;49.012;8.370;2023-08-07T01:28:00;15.30;86.50
20487;DHT22;10402;49.012;8.370;2023-08-07T01:30:42;15.30;86.70
20487;DHT22;10402;49.012;8.370;2023-08-07T01:35:58;15.20;86.50
20487;DHT22;10402;49.012;8.370;2023-08-07T01:38:27;15.20;86.60
20487;DHT22;10402;49.012;8.370;2023-08-07T01:40:54;15.20;86.40
20487;DHT22;10402;49.012;8.370;2023-08-07T01:43:20;15.20;86.70
20487;DHT22;10402;49.012;8.370;2023-08-07T01:45:46;15.20;86.60
20487;DHT22;10402;49.012;8.370;2023-08-07T01:48:11;15.10;86.40
20487;DHT22;10402;49.012;8.370;2023-08-07T01:50:38;15.10;86.50
20487;DHT22;10402;49.012;8.370;2023-08-07T01:53:04;15.10;86.70
20487;DHT22;10402;49.012;8.370;2023-08-07T01:55:30;15.00;86.80
20487;DHT22;10402;49.012;8.370;2023-08-07T01:57:56;15.10;86.90
20487;DHT22;10402;49.012;8.370;2023-08-07T02:00:22;15.10;86.60
20487;DHT22;10402;49.012;8.370;2023-08-07T02:02:47;15.10;86.60
20487;DHT22;10402;49.012;8.370;2023-08-07T02:05:13;15.00;86.50
20487;DHT22;10402;49.012;8.370;2023-08-07T02:07:39;15.00;86.50
20487;DHT22;10402;49.012;8.370;2023-08-07T02:10:05;15.00;86.50
20487;DHT22;10402;49.012;8.370;2023-08-07T02:12:31;14.90;86.40
20487;DHT22;10402;49.012;8.370;2023-08-07T02:14:58;14.90;86.60
20487;DHT22;10402;49.012;8.370;2023-08-07T02:17:25;14.90;86.50
20487;DHT22;10402;49.012;8.370;2023-08-07T02:19:50;14.90;86.50
20487;DHT22;10402;49.012;8.370;2023-08-07T02:22:16;14.90;86.50
20487;DHT22;10402;49.012;8.370;2023-08-07T02:24:42;14.90;86.50
20487;DHT22;10402;49.012;8.370;2023-08-07T02:27:07;14.80;86.50
20487;DHT22;10402;49.012;8.370;2023-08-07T02:29:33;14.80;86.50
20487;DHT22;10402;49.012;8.370;2023-08-07T02:32:03;14.80;86.90
20487;DHT22;10402;49.012;8.370;2023-08-07T02:34:29;14.80;87.00
20487;DHT22;10402;49.012;8.370;2023-08-07T02:36:55;14.80;87.10
20487;DHT22;10402;49.012;8.370;2023-08-07T02:39:21;14.70;87.00
20487;DHT22;10402;49.012;8.370;2023-08-07T02:41:46;14.70;87.10
20487;DHT22;10402;49.012;8.370;2023-08-07T02:44:12;14.70;87.30
20487;DHT22;10402;49.012;8.370;2023-08-07T02:46:37;14.70;87.30
20487;DHT22;10402;49.012;8.370;2023-08-07T02:49:03;14.70;87.50
20487;DHT22;10402;49.012;8.370;2023-08-07T02:51:29;14.60;87.40
20487;DHT22;10402;49.012;8.370;2023-08-07T02:53:54;14.60;87.40
20487;DHT22;10402;49.012;8.370;2023-08-07T02:56:20;14.60;87.40
20487;DHT22;10402;49.012;8.370;2023-08-07T02:58:45;14.60;87.60
20487;DHT22;10402;49.012;8.370;2023-08-07T03:01:11;14.60;87.60
20487;DHT22;10402;49.012;8.370;2023-08-07T03:03:37;14.60;87.70
20487;DHT22;10402;49.012;8.370;2023-08-07T03:06:03;14.50;87.80
20487;DHT22;10402;49.012;8.370;2023-08-07T03:08:29;14.50;88.00
20487;DHT22;10402;49.012;8.370;2023-08-07T03:10:56;14.50;88.20
20487;DHT22;10402;49.012;8.370;2023-08-07T03:13:22;14.50;88.30
20487;DHT22;10402;49.012;8.370;2023-08-07T03:15:48;14.50;88.30
20487;DHT22;10402;49.012;8.370;2023-08-07T03:18:16;14.50;88.50
20487;DHT22;10402;49.012;8.370;2023-08-07T03:20:42;14.40;88.70
20487;DHT22;10402;49.012;8.370;2023-08-07T03:23:09;14.40;89.10
20487;DHT22;10402;49.012;8.370;2023-08-07T03:25:34;14.40;89.20
20487;DHT22;10402;49.012;8.370;2023-08-07T03:28:00;14.40;89.20
20487;DHT22;10402;49.012;8.370;2023-08-07T03:30:25;14.40;89.20
20487;DHT22;10402;49.012;8.370;2023-08-07T03:32:51;14.40;89.20
20487;DHT22;10402;49.012;8.370;2023-08-07T03:35:16;14.40;89.30
20487;DHT22;10402;49.012;8.370;2023-08-07T03:37:42;14.30;89.40
20487;DHT22;10402;49.012;8.370;2023-08-07T03:40:08;14.30;89.50
20487;DHT22;10402;49.012;8.370;2023-08-07T03:42:33;14.30;89.50
20487;DHT22;10402;49.012;8.370;2023-08-07T03:44:59;14.30;89.60
20487;DHT22;10402;49.012;8.370;2023-08-07T03:47:24;14.30;89.50
20487;DHT22;10402;49.012;8.370;2023-08-07T03:49:50;14.40;89.60
20487;DHT22;10402;49.012;8.370;2023-08-07T03:52:15;14.40;89.70
20487;DHT22;10402;49.012;8.370;2023-08-07T03:54:43;14.40;90.10
20487;DHT22;10402;49.012;8.370;2023-08-07T03:57:09;14.40;89.70
20487;DHT22;10402;49.012;8.370;2023-08-07T03:59:36;14.40;89.70
20487;DHT22;10402;49.012;8.370;2023-08-07T04:02:01;14.40;89.80
20487;DHT22;10402;49.012;8.370;2023-08-07T04:04:27;14.40;89.60
20487;DHT22;10402;49.012;8.370;2023-08-07T04:06:52;14.40;89.60
20487;DHT22;10402;49.012;8.370;2023-08-07T04:09:18;14.50;89.70
20487;DHT22;10402;49.012;8.370;2023-08-07T04:11:43;14.40;89.60
20487;DHT22;10402;49.012;8.370;2023-08-07T04:14:09;14.40;89.60
20487;DHT22;10402;49.012;8.370;2023-08-07T04:16:34;14.40;89.80
20487;DHT22;10402;49.012;8.370;2023-08-07T04:19:02;14.30;90.00
20487;DHT22;10402;49.012;8.370;2023-08-07T04:21:28;14.30;90.00
20487;DHT22;10402;49.012;8.370;2023-08-07T04:23:53;14.30;90.10
20487;DHT22;10402;49.012;8.370;2023-08-07T04:26:19;14.30;90.10
20487;DHT22;10402;49.012;8.370;2023-08-07T04:28:44;14.40;90.20
20487;DHT22;10402;49.012;8.370;2023-08-07T04:31:10;14.30;90.10
20487;DHT22;10402;49.012;8.370;2023-08-07T04:33:35;14.30;90.20
20487;DHT22;10402;49.012;8.370;2023-08-07T04:36:01;14.30;90.30
20487;DHT22;10402;49.012;8.370;2023-08-07T04:38:27;14.30;90.20
20487;DHT22;10402;49.012;8.370;2023-08-07T04:40:52;14.30;90.20
20487;DHT22;10402;49.012;8.370;2023-08-07T04:43:19;14.30;90.20
20487;DHT22;10402;49.012;8.370;2023-08-07T04:45:46;14.40;90.30
20487;DHT22;10402;49.012;8.370;2023-08-07T04:48:11;14.40;90.10
20487;DHT22;10402;49.012;8.370;2023-08-07T04:50:37;14.40;90.20
20487;DHT22;10402;49.012;8.370;2023-08-07T04:53:04;14.40;90.10
20487;DHT22;10402;49.012;8.370;2023-08-07T04:55:30;14.40;90.00
20487;DHT22;10402;49.012;8.370;2023-08-07T04:57:56;14.40;89.90
20487;DHT22;10402;49.012;8.370;2023-08-07T05:00:22;14.40;90.00
20487;DHT22;10402;49.012;8.370;2023-08-07T05:02:48;14.40;89.90
20487;DHT22;10402;49.012;8.370;2023-08-07T05:05:14;14.40;89.80
20487;DHT22;10402;49.012;8.370;2023-08-07T05:07:40;14.40;89.80
20487;DHT22;10402;49.012;8.370;2023-08-07T05:10:06;14.50;89.80
20487;DHT22;10402;49.012;8.370;2023-08-07T05:12:32;14.50;90.00
20487;DHT22;10402;49.012;8.370;2023-08-07T05:14:57;14.50;89.90
20487;DHT22;10402;49.012;8.370;2023-08-07T05:17:23;14.50;89.70
20487;DHT22;10402;49.012;8.370;2023-08-07T05:19:48;14.50;89.70
20487;DHT22;10402;49.012;8.370;2023-08-07T05:22:14;14.60;89.70
20487;DHT22;10402;49.012;8.370;2023-08-07T05:24:40;14.50;89.70
20487;DHT22;10402;49.012;8.370;2023-08-07T05:27:10;14.50;89.70
20487;DHT22;10402;49.012;8.370;2023-08-07T05:29:36;14.50;89.70
20487;DHT22;10402;49.012;8.370;2023-08-07T05:32:14;14.50;89.60
20487;DHT22;10402;49.012;8.370;2023-08-07T05:34:40;14.50;89.70
20487;DHT22;10402;49.012;8.370;2023-08-07T05:37:06;14.60;89.70
20487;DHT22;10402;49.012;8.370;2023-08-07T05:39:32;14.60;89.80
20487;DHT22;10402;49.012;8.370;2023-08-07T05:41:57;14.60;89.70
20487;DHT22;10402;49.012;8.370;2023-08-07T05:44:26;14.70;90.20
20487;DHT22;10402;49.012;8.370;2023-08-07T05:46:52;14.70;89.50
20487;DHT22;10402;49.012;8.370;2023-08-07T05:49:19;14.70;89.60
20487;DHT22;10402;49.012;8.370;2023-08-07T05:51:44;14.70;89.60
20487;DHT22;10402;49.012;8.370;2023-08-07T05:54:10;14.70;89.50
20487;DHT22;10402;49.012;8.370;2023-08-07T05:56:37;14.70;89.30
20487;DHT22;10402;49.012;8.370;2023-08-07T05:59:03;14.80;89.40
20487;DHT22;10402;49.012;8.370;2023-08-07T06:01:28;14.80;89.30
20487;DHT22;10402;49.012;8.370;2023-08-07T06:03:59;14.80;89.40
20487;DHT22;10402;49.012;8.370;2023-08-07T06:06:25;14.80;89.30
20487;DHT22;10402;49.012;8.370;2023-08-07T06:08:53;14.80;89.20
20487;DHT22;10402;49.012;8.370;2023-08-07T06:11:19;14.80;89.10
20487;DHT22;10402;49.012;8.370;2023-08-07T06:13:44;14.80;89.10
20487;DHT22;10402;49.012;8.370;2023-08-07T06:16:10;14.80;89.20
20487;DHT22;10402;49.012;8.370;2023-08-07T06:18:36;14.80;89.30
20487;DHT22;10402;49.012;8.370;2023-08-07T06:21:02;14.80;89.20
20487;DHT22;10402;49.012;8.370;2023-08-07T06:23:29;14.80;89.20
20487;DHT22;10402;49.012;8.370;2023-08-07T06:25:54;14.90;89.30
20487;DHT22;10402;49.012;8.370;2023-08-07T06:28:20;14.90;89.40
20487;DHT22;10402;49.012;8.370;2023-08-07T06:30:46;15.00;89.30
20487;DHT22;10402;49.012;8.370;2023-08-07T06:33:12;15.00;89.20
20487;DHT22;10402;49.012;8.370;2023-08-07T06:35:38;15.10;89.20
20487;DHT22;10402;49.012;8.370;2023-08-07T06:38:05;15.10;89.00
20487;DHT22;10402;49.012;8.370;2023-08-07T06:40:30;15.10;88.80
20487;DHT22;10402;49.012;8.370;2023-08-07T06:42:56;15.20;88.80
20487;DHT22;10402;49.012;8.370;2023-08-07T06:45:21;15.30;88.70
20487;DHT22;10402;49.012;8.370;2023-08-07T06:47:47;15.30;88.50
20487;DHT22;10402;49.012;8.370;2023-08-07T06:50:13;15.40;88.50
20487;DHT22;10402;49.012;8.370;2023-08-07T06:52:40;15.40;88.40
20487;DHT22;10402;49.012;8.370;2023-08-07T06:55:06;15.40;88.20
20487;DHT22;10402;49.012;8.370;2023-08-07T06:57:32;15.40;88.20
20487;DHT22;10402;49.012;8.370;2023-08-07T06:59:58;15.50;88.30
20487;DHT22;10402;49.012;8.370;2023-08-07T07:02:23;15.50;88.20
20487;DHT22;10402;49.012;8.370;2023-08-07T07:04:49;15.50;88.10
20487;DHT22;10402;49.012;8.370;2023-08-07T07:07:14;15.50;88.00
20487;DHT22;10402;49.012;8.370;2023-08-07T07:09:40;15.60;88.00
20487;DHT22;10402;49.012;8.370;2023-08-07T07:12:06;15.60;88.10
20487;DHT22;10402;49.012;8.370;2023-08-07T07:14:32;15.60;87.90
20487;DHT22;10402;49.012;8.370;2023-08-07T07:16:59;15.60;87.70
20487;DHT22;10402;49.012;8.370;2023-08-07T07:19:24;15.60;87.60
20487;DHT22;10402;49.012;8.370;2023-08-07T07:21:50;15.70;87.50
20487;DHT22;10402;49.012;8.370;2023-08-07T07:24:15;15.70;87.00
20487;DHT22;10402;49.012;8.370;2023-08-07T07:26:41;15.70;86.90
20487;DHT22;10402;49.012;8.370;2023-08-07T07:29:06;15.70;86.80
20487;DHT22;10402;49.012;8.370;2023-08-07T07:31:32;15.70;86.90
20487;DHT22;10402;49.012;8.370;2023-08-07T07:33:58;15.70;86.90
20487;DHT22;10402;49.012;8.370;2023-08-07T07:36:23;15.70;86.90
20487;DHT22;10402;49.012;8.370;2023-08-07T07:38:49;15.80;86.60
20487;DHT22;10402;49.012;8.370;2023-08-07T07:41:15;15.80;85.70
20487;DHT22;10402;49.012;8.370;2023-08-07T07:43:41;15.70;85.30
20487;DHT22;10402;49.012;8.370;2023-08-07T07:46:07;15.80;85.30
20487;DHT22;10402;49.012;8.370;2023-08-07T07:48:33;15.80;84.90
20487;DHT22;10402;49.012;8.370;2023-08-07T07:51:07;15.80;84.60
20487;DHT22;10402;49.012;8.370;2023-08-07T07:53:33;15.80;84.40
20487;DHT22;10402;49.012;8.370;2023-08-07T07:55:58;15.80;83.80
20487;DHT22;10402;49.012;8.370;2023-08-07T07:58:24;15.80;82.70
20487;DHT22;10402;49.012;8.370;2023-08-07T08:00:50;15.80;82.60
20487;DHT22;10402;49.012;8.370;2023-08-07T08:03:19;15.80;82.20
20487;DHT22;10402;49.012;8.370;2023-08-07T08:05:44;15.90;81.70
20487;DHT22;10402;49.012;8.370;2023-08-07T08:08:10;15.90;81.30
20487;DHT22;10402;49.012;8.370;2023-08-07T08:10:36;15.90;79.90
20487;DHT22;10402;49.012;8.370;2023-08-07T08:13:02;15.90;80.70
20487;DHT22;10402;49.012;8.370;2023-08-07T08:15:29;15.90;79.60
20487;DHT22;10402;49.012;8.370;2023-08-07T08:17:55;16.00;79.10
20487;DHT22;10402;49.012;8.370;2023-08-07T08:20:21;16.00;78.70
20487;DHT22;10402;49.012;8.370;2023-08-07T08:22:47;16.00;78.40
20487;DHT22;10402;49.012;8.370;2023-08-07T08:25:13;16.10;78.20
20487;DHT22;10402;49.012;8.370;2023-08-07T08:27:39;16.10;78.00
20487;DHT22;10402;49.012;8.370;2023-08-07T08:30:06;16.20;77.70
20487;DHT22;10402;49.012;8.370;2023-08-07T08:32:32;16.20;77.20
20487;DHT22;10402;49.012;8.370;2023-08-07T08:34:58;16.30;76.80
20487;DHT22;10402;49.012;8.370;2023-08-07T08:37:23;16.30;76.40
20487;DHT22;10402;49.012;8.370;2023-08-07T08:39:49;16.40;76.30
20487;DHT22;10402;49.012;8.370;2023-08-07T08:42:15;16.50;76.40
20487;DHT22;10402;49.012;8.370;2023-08-07T08:44:46;16.60;76.30
20487;DHT22;10402;49.012;8.370;2023-08-07T08:47:14;16.70;75.40
20487;DHT22;10402;49.012;8.370;2023-08-07T08:49:47;16.80;74.80
20487;DHT22;10402;49.012;8.370;2023-08-07T08:52:15;16.90;74.10
20487;DHT22;10402;49.012;8.370;2023-08-07T08:54:41;16.90;73.70
20487;DHT22;10402;49.012;8.370;2023-08-07T08:57:07;16.90;73.70
20487;DHT22;10402;49.012;8.370;2023-08-07T08:59:33;17.00;73.50
20487;DHT22;10402;49.012;8.370;2023-08-07T09:01:59;17.10;73.50
20487;DHT22;10402;49.012;8.370;2023-08-07T09:04:25;17.10;72.70
20487;DHT22;10402;49.012;8.370;2023-08-07T09:06:50;17.20;72.00
20487;DHT22;10402;49.012;8.370;2023-08-07T09:09:19;17.10;71.10
20487;DHT22;10402;49.012;8.370;2023-08-07T09:11:45;17.20;71.30
20487;DHT22;10402;49.012;8.370;2023-08-07T09:14:15;17.20;70.90
20487;DHT22;10402;49.012;8.370;2023-08-07T09:16:41;17.30;71.10
20487;DHT22;10402;49.012;8.370;2023-08-07T09:19:07;17.40;70.10
20487;DHT22;10402;49.012;8.370;2023-08-07T09:21:33;17.40;69.90
20487;DHT22;10402;49.012;8.370;2023-08-07T09:23:59;17.40;69.80
20487;DHT22;10402;49.012;8.370;2023-08-07T09:26:25;17.50;69.40
20487;DHT22;10402;49.012;8.370;2023-08-07T09:28:51;17.50;68.40
20487;DHT22;10402;49.012;8.370;2023-08-07T09:31:18;17.60;68.30
20487;DHT22;10402;49.012;8.370;2023-08-07T09:33:47;17.60;67.70
20487;DHT22;10402;49.012;8.370;2023-08-07T09:36:13;17.70;67.20
20487;DHT22;10402;49.012;8.370;2023-08-07T09:38:39;17.70;67.40
20487;DHT22;10402;49.012;8.370;2023-08-07T09:41:04;17.80;67.30
20487;DHT22;10402;49.012;8.370;2023-08-07T09:43:34;17.80;67.30
20487;DHT22;10402;49.012;8.370;2023-08-07T09:46:04;17.90;67.40
20487;DHT22;10402;49.012;8.370;2023-08-07T09:48:30;17.90;66.80
20487;DHT22;10402;49.012;8.370;2023-08-07T09:51:00;17.80;66.30
20487;DHT22;10402;49.012;8.370;2023-08-07T09:53:27;17.80;66.10
20487;DHT22;10402;49.012;8.370;2023-08-07T09:55:54;17.80;65.90
20487;DHT22;10402;49.012;8.370;2023-08-07T09:58:20;17.80;66.30
20487;DHT22;10402;49.012;8.370;2023-08-07T10:00:46;17.80;65.70
20487;DHT22;10402;49.012;8.370;2023-08-07T10:03:14;17.90;66.50
20487;DHT22;10402;49.012;8.370;2023-08-07T10:05:40;17.90;65.00
20487;DHT22;10402;49.012;8.370;2023-08-07T10:08:06;17.90;64.80
20487;DHT22;10402;49.012;8.370;2023-08-07T10:10:32;17.90;64.90
20487;DHT22;10402;49.012;8.370;2023-08-07T10:13:00;18.00;65.90
20487;DHT22;10402;49.012;8.370;2023-08-07T10:15:27;18.00;64.40
20487;DHT22;10402;49.012;8.370;2023-08-07T10:17:52;18.00;64.50
20487;DHT22;10402;49.012;8.370;2023-08-07T10:20:18;18.10;64.70
20487;DHT22;10402;49.012;8.370;2023-08-07T10:22:45;18.20;64.60
20487;DHT22;10402;49.012;8.370;2023-08-07T10:25:11;18.30;64.10
20487;DHT22;10402;49.012;8.370;2023-08-07T10:27:38;18.40;63.30
20487;DHT22;10402;49.012;8.370;2023-08-07T10:30:07;18.40;63.00
20487;DHT22;10402;49.012;8.370;2023-08-07T10:32:35;18.40;62.30
20487;DHT22;10402;49.012;8.370;2023-08-07T10:35:03;18.50;62.50
20487;DHT22;10402;49.012;8.370;2023-08-07T10:37:40;18.50;62.10
20487;DHT22;10402;49.012;8.370;2023-08-07T10:40:07;18.50;62.10
20487;DHT22;10402;49.012;8.370;2023-08-07T10:45:20;18.50;61.90
20487;DHT22;10402;49.012;8.370;2023-08-07T10:50:34;18.50;61.50
20487;DHT22;10402;49.012;8.370;2023-08-07T10:53:01;18.50;61.40
20487;DHT22;10402;49.012;8.370;2023-08-07T10:55:31;18.50;61.40
20487;DHT22;10402;49.012;8.370;2023-08-07T10:57:57;18.40;61.00
20487;DHT22;10402;49.012;8.370;2023-08-07T11:00:26;18.40;61.00
20487;DHT22;10402;49.012;8.370;2023-08-07T11:02:58;18.40;61.20
20487;DHT22;10402;49.012;8.370;2023-08-07T11:05:25;18.40;61.40
20487;DHT22;10402;49.012;8.370;2023-08-07T11:07:51;18.40;61.40
20487;DHT22;10402;49.012;8.370;2023-08-07T11:10:18;18.40;61.40
20487;DHT22;10402;49.012;8.370;2023-08-07T11:12:44;18.30;61.80
20487;DHT22;10402;49.012;8.370;2023-08-07T11:15:12;18.40;62.90
20487;DHT22;10402;49.012;8.370;2023-08-07T11:17:38;18.40;62.20
20487;DHT22;10402;49.012;8.370;2023-08-07T11:20:06;18.40;62.40
20487;DHT22;10402;49.012;8.370;2023-08-07T11:22:32;18.40;61.90
20487;DHT22;10402;49.012;8.370;2023-08-07T11:24:58;18.30;62.00
20487;DHT22;10402;49.012;8.370;2023-08-07T11:27:23;18.30;61.80
20487;DHT22;10402;49.012;8.370;2023-08-07T11:29:49;18.30;61.80
20487;DHT22;10402;49.012;8.370;2023-08-07T11:32:14;18.20;61.70
20487;DHT22;10402;49.012;8.370;2023-08-07T11:34:40;18.20;62.00
20487;DHT22;10402;49.012;8.370;2023-08-07T11:37:05;18.20;61.70
20487;DHT22;10402;49.012;8.370;2023-08-07T11:39:31;18.20;61.90
20487;DHT22;10402;49.012;8.370;2023-08-07T11:41:57;18.20;61.70
20487;DHT22;10402;49.012;8.370;2023-08-07T11:44:23;18.20;62.00
20487;DHT22;10402;49.012;8.370;2023-08-07T11:46:50;18.30;62.10
20487;DHT22;10402;49.012;8.370;2023-08-07T11:49:16;18.40;61.50
20487;DHT22;10402;49.012;8.370;2023-08-07T11:51:41;18.40;61.20
20487;DHT22;10402;49.012;8.370;2023-08-07T11:54:14;18.40;61.00
20487;DHT22;10402;49.012;8.370;2023-08-07T11:56:41;18.40;60.60
20487;DHT22;10402;49.012;8.370;2023-08-07T11:59:08;18.50;60.40
20487;DHT22;10402;49.012;8.370;2023-08-07T12:01:37;18.50;60.10
20487;DHT22;10402;49.012;8.370;2023-08-07T12:06:33;18.70;59.40
20487;DHT22;10402;49.012;8.370;2023-08-07T12:09:00;18.70;59.20
20487;DHT22;10402;49.012;8.370;2023-08-07T12:11:26;18.80;58.80
20487;DHT22;10402;49.012;8.370;2023-08-07T12:13:54;18.90;59.00
20487;DHT22;10402;49.012;8.370;2023-08-07T12:16:20;18.90;59.10
20487;DHT22;10402;49.012;8.370;2023-08-07T12:18:48;19.00;59.10
20487;DHT22;10402;49.012;8.370;2023-08-07T12:21:17;19.00;59.50
20487;DHT22;10402;49.012;8.370;2023-08-07T12:23:44;19.00;58.80
20487;DHT22;10402;49.012;8.370;2023-08-07T12:26:09;19.00;58.70
20487;DHT22;10402;49.012;8.370;2023-08-07T12:28:35;19.10;58.60
20487;DHT22;10402;49.012;8.370;2023-08-07T12:31:02;19.10;58.50
20487;DHT22;10402;49.012;8.370;2023-08-07T12:33:29;19.10;58.70
20487;DHT22;10402;49.012;8.370;2023-08-07T12:35:54;19.20;58.60
20487;DHT22;10402;49.012;8.370;2023-08-07T12:38:20;19.20;58.40
20487;DHT22;10402;49.012;8.370;2023-08-07T12:40:46;19.30;58.60
20487;DHT22;10402;49.012;8.370;2023-08-07T12:43:12;19.40;58.80
20487;DHT22;10402;49.012;8.370;2023-08-07T12:45:37;19.40;58.80
20487;DHT22;10402;49.012;8.370;2023-08-07T12:48:03;19.40;58.80
20487;DHT22;10402;49.012;8.370;2023-08-07T12:50:29;19.40;58.80
20487;DHT22;10402;49.012;8.370;2023-08-07T12:52:55;19.50;59.10
20487;DHT22;10402;49.012;8.370;2023-08-07T12:55:21;19.50;58.80
20487;DHT22;10402;49.012;8.370;2023-08-07T12:57:46;19.50;58.90
20487;DHT22;10402;49.012;8.370;2023-08-07T13:00:14;19.50;58.70
20487;DHT22;10402;49.012;8.370;2023-08-07T13:02:41;19.60;58.60
20487;DHT22;10402;49.012;8.370;2023-08-07T13:05:08;19.60;58.30
20487;DHT22;10402;49.012;8.370;2023-08-07T13:07:34;19.70;58.30
20487;DHT22;10402;49.012;8.370;2023-08-07T13:10:00;19.70;58.20
20487;DHT22;10402;49.012;8.370;2023-08-07T13:12:26;19.60;57.90
20487;DHT22;10402;49.012;8.370;2023-08-07T13:14:51;19.60;57.90
20487;DHT22;10402;49.012;8.370;2023-08-07T13:17:17;19.60;57.70
20487;DHT22;10402;49.012;8.370;2023-08-07T13:19:42;19.60;57.70
20487;DHT22;10402;49.012;8.370;2023-08-07T13:22:08;19.60;57.80
20487;DHT22;10402;49.012;8.370;2023-08-07T13:24:33;19.60;57.60
20487;DHT22;10402;49.012;8.370;2023-08-07T13:26:59;19.60;57.70
20487;DHT22;10402;49.012;8.370;2023-08-07T13:29:24;19.60;57.30
20487;DHT22;10402;49.012;8.370;2023-08-07T13:31:51;19.60;56.50
20487;DHT22;10402;49.012;8.370;2023-08-07T13:34:17;19.60;56.30
20487;DHT22;10402;49.012;8.370;2023-08-07T13:36:42;19.60;56.40
20487;DHT22;10402;49.012;8.370;2023-08-07T13:39:08;19.70;56.80
20487;DHT22;10402;49.012;8.370;2023-08-07T13:41:34;19.70;57.00
20487;DHT22;10402;49.012;8.370;2023-08-07T13:44:00;19.80;57.20
20487;DHT22;10402;49.012;8.370;2023-08-07T13:46:26;19.70;57.60
20487;DHT22;10402;49.012;8.370;2023-08-07T13:48:52;19.60;58.00
20487;DHT22;10402;49.012;8.370;2023-08-07T13:51:17;19.50;58.60
20487;DHT22;10402;49.012;8.370;2023-08-07T13:53:43;19.50;59.10
20487;DHT22;10402;49.012;8.370;2023-08-07T13:56:09;19.50;59.40
20487;DHT22;10402;49.012;8.370;2023-08-07T13:58:38;19.40;59.50
20487;DHT22;10402;49.012;8.370;2023-08-07T14:01:04;19.40;59.70
20487;DHT22;10402;49.012;8.370;2023-08-07T14:03:30;19.30;59.80
20487;DHT22;10402;49.012;8.370;2023-08-07T14:05:56;19.40;59.90
20487;DHT22;10402;49.012;8.370;2023-08-07T14:08:22;19.40;60.00
20487;DHT22;10402;49.012;8.370;2023-08-07T14:10:47;19.50;60.40
20487;DHT22;10402;49.012;8.370;2023-08-07T14:13:13;19.50;60.00
20487;DHT22;10402;49.012;8.370;2023-08-07T14:15:39;19.60;60.00
20487;DHT22;10402;49.012;8.370;2023-08-07T14:18:05;19.60;59.70
20487;DHT22;10402;49.012;8.370;2023-08-07T14:20:31;19.70;59.60
20487;DHT22;10402;49.012;8.370;2023-08-07T14:22:56;19.70;59.60
20487;DHT22;10402;49.012;8.370;2023-08-07T14:25:22;19.70;59.70
20487;DHT22;10402;49.012;8.370;2023-08-07T14:27:48;19.70;59.90
20487;DHT22;10402;49.012;8.370;2023-08-07T14:30:14;19.70;59.80
20487;DHT22;10402;49.012;8.370;2023-08-07T14:32:39;19.70;59.60
20487;DHT22;10402;49.012;8.370;2023-08-07T14:35:06;19.70;59.90
20487;DHT22;10402;49.012;8.370;2023-08-07T14:37:31;19.70;59.80
20487;DHT22;10402;49.012;8.370;2023-08-07T14:39:57;19.60;59.60
20487;DHT22;10402;49.012;8.370;2023-08-07T14:42:23;19.60;59.70
20487;DHT22;10402;49.012;8.370;2023-08-07T14:44:49;19.60;59.70
20487;DHT22;10402;49.012;8.370;2023-08-07T14:47:14;19.60;59.60
20487;DHT22;10402;49.012;8.370;2023-08-07T14:49:40;19.60;59.40
20487;DHT22;10402;49.012;8.370;2023-08-07T14:52:05;19.70;59.60
20487;DHT22;10402;49.012;8.370;2023-08-07T14:54:32;19.80;59.70
20487;DHT22;10402;49.012;8.370;2023-08-07T14:56:58;19.90;59.40
20487;DHT22;10402;49.012;8.370;2023-08-07T14:59:24;20.00;59.20
20487;DHT22;10402;49.012;8.370;2023-08-07T15:01:50;20.00;59.10
20487;DHT22;10402;49.012;8.370;2023-08-07T15:04:16;20.00;59.10
20487;DHT22;10402;49.012;8.370;2023-08-07T15:06:41;20.00;59.00
20487;DHT22;10402;49.012;8.370;2023-08-07T15:09:08;20.00;59.10
20487;DHT22;10402;49.012;8.370;2023-08-07T15:11:34;20.00;59.20
20487;DHT22;10402;49.012;8.370;2023-08-07T15:14:00;20.10;59.40
20487;DHT22;10402;49.012;8.370;2023-08-07T15:16:27;20.10;59.50
20487;DHT22;10402;49.012;8.370;2023-08-07T15:18:52;20.10;59.40
20487;DHT22;10402;49.012;8.370;2023-08-07T15:21:18;20.10;59.20
20487;DHT22;10402;49.012;8.370;2023-08-07T15:23:44;20.10;59.10
20487;DHT22;10402;49.012;8.370;2023-08-07T15:26:09;20.20;59.00
20487;DHT22;10402;49.012;8.370;2023-08-07T15:28:35;20.20;58.90
20487;DHT22;10402;49.012;8.370;2023-08-07T15:31:01;20.20;58.70
20487;DHT22;10402;49.012;8.370;2023-08-07T15:33:26;20.20;58.70
20487;DHT22;10402;49.012;8.370;2023-08-07T15:35:55;20.20;58.70